sensor_id;sensor_type;location;lat;lon;timestamp;P1;durP1;ratioP1;P2;durP2;ratioP2
72924;SDS011;61070;50.794;7.054;2023-02-15T00:01:06;58.38;;;25.50;;
72924;SDS011;61070;50.794;7.054;2023-02-15T00:03:32;59.80;;;26.30;;
72924;SDS011;61070;50.794;7.054;2023-02-15T00:05:58;60.08;;;26.88;;
72924;SDS011;61070;50.794;7.054;2023-02-15T00:08:23;56.75;;;26.30;;
72924;SDS011;61070;50.794;7.054;2023-02-15T00:10:49;60.28;;;26.33;;
72924;SDS011;61070;50.794;7.054;2023-02-15T00:13:14;63.53;;;28.15;;
72924;SDS011;61070;50.794;7.054;2023-02-15T00:15:39;64.35;;;27.80;;
72924;SDS011;61070;50.794;7.054;2023-02-15T00:18:05;59.17;;;25.65;;
72924;SDS011;61070;50.794;7.054;2023-02-15T00:20:30;53.85;;;25.67;;
72924;SDS011;61070;50.794;7.054;2023-02-15T00:22:55;56.85;;;25.95;;
72924;SDS011;61070;50.794;7.054;2023-02-15T00:25:21;54.47;;;24.58;;
72924;SDS011;61070;50.794;7.054;2023-02-15T00:27:46;58.58;;;24.98;;
72924;SDS011;61070;50.794;7.054;2023-02-15T00:30:11;59.53;;;27.30;;
72924;SDS011;61070;50.794;7.054;2023-02-15T00:32:37;63.05;;;28.33;;
72924;SDS011;61070;50.794;7.054;2023-02-15T00:35:02;58.05;;;27.52;;
72924;SDS011;61070;50.794;7.054;2023-02-15T00:37:28;52.97;;;24.70;;
72924;SDS011;61070;50.794;7.054;2023-02-15T00:39:53;64.03;;;27.60;;
72924;SDS011;61070;50.794;7.054;2023-02-15T00:42:18;56.88;;;25.20;;
72924;SDS011;61070;50.794;7.054;2023-02-15T00:44:43;58.50;;;25.80;;
72924;SDS011;61070;50.794;7.054;2023-02-15T00:47:09;63.95;;;28.00;;
72924;SDS011;61070;50.794;7.054;2023-02-15T00:49:34;62.08;;;26.45;;
72924;SDS011;61070;50.794;7.054;2023-02-15T00:51:59;58.63;;;24.38;;
72924;SDS011;61070;50.794;7.054;2023-02-15T00:54:25;57.95;;;25.75;;
72924;SDS011;61070;50.794;7.054;2023-02-15T00:56:50;60.60;;;26.92;;
72924;SDS011;61070;50.794;7.054;2023-02-15T00:59:15;56.80;;;25.95;;
72924;SDS011;61070;50.794;7.054;2023-02-15T01:01:40;54.83;;;25.23;;
72924;SDS011;61070;50.794;7.054;2023-02-15T01:04:06;62.38;;;26.98;;
72924;SDS011;61070;50.794;7.054;2023-02-15T01:06:31;58.67;;;25.38;;
72924;SDS011;61070;50.794;7.054;2023-02-15T01:08:57;59.45;;;24.63;;
72924;SDS011;61070;50.794;7.054;2023-02-15T01:11:23;57.85;;;27.15;;
72924;SDS011;61070;50.794;7.054;2023-02-15T01:13:50;58.03;;;25.77;;
72924;SDS011;61070;50.794;7.054;2023-02-15T01:16:17;60.15;;;25.73;;
72924;SDS011;61070;50.794;7.054;2023-02-15T01:18:42;56.50;;;25.60;;
72924;SDS011;61070;50.794;7.054;2023-02-15T01:21:09;57.65;;;23.92;;
72924;SDS011;61070;50.794;7.054;2023-02-15T01:23:35;54.85;;;24.20;;
72924;SDS011;61070;50.794;7.054;2023-02-15T01:26:01;63.72;;;25.88;;
72924;SDS011;61070;50.794;7.054;2023-02-15T01:28:27;57.42;;;26.33;;
72924;SDS011;61070;50.794;7.054;2023-02-15T01:30:52;55.90;;;24.30;;
72924;SDS011;61070;50.794;7.054;2023-02-15T01:33:17;54.83;;;24.85;;
72924;SDS011;61070;50.794;7.054;2023-02-15T01:35:44;54.55;;;24.48;;
72924;SDS011;61070;50.794;7.054;2023-02-15T01:38:12;57.10;;;25.38;;
72924;SDS011;61070;50.794;7.054;2023-02-15T01:40:38;62.30;;;26.42;;
72924;SDS011;61070;50.794;7.054;2023-02-15T01:43:07;59.47;;;25.05;;
72924;SDS011;61070;50.794;7.054;2023-02-15T01:45:34;59.70;;;24.98;;
72924;SDS011;61070;50.794;7.054;2023-02-15T01:50:31;56.92;;;26.52;;
72924;SDS011;61070;50.794;7.054;2023-02-15T01:58:20;64.10;;;26.27;;
72924;SDS011;61070;50.794;7.054;2023-02-15T02:00:47;60.42;;;26.25;;
72924;SDS011;61070;50.794;7.054;2023-02-15T02:03:13;62.85;;;25.52;;
72924;SDS011;61070;50.794;7.054;2023-02-15T02:05:39;61.97;;;27.35;;
72924;SDS011;61070;50.794;7.054;2023-02-15T02:08:05;57.00;;;25.15;;
72924;SDS011;61070;50.794;7.054;2023-02-15T02:10:33;66.13;;;25.65;;
72924;SDS011;61070;50.794;7.054;2023-02-15T02:13:00;68.88;;;28.05;;
72924;SDS011;61070;50.794;7.054;2023-02-15T02:15:33;65.93;;;26.60;;
72924;SDS011;61070;50.794;7.054;2023-02-15T02:21:16;65.90;;;28.30;;
72924;SDS011;61070;50.794;7.054;2023-02-15T02:23:58;61.67;;;26.85;;
72924;SDS011;61070;50.794;7.054;2023-02-15T02:29:25;65.68;;;28.23;;
72924;SDS011;61070;50.794;7.054;2023-02-15T02:34:51;58.85;;;25.92;;
72924;SDS011;61070;50.794;7.054;2023-02-15T02:37:33;60.88;;;27.17;;
72924;SDS011;61070;50.794;7.054;2023-02-15T02:40:30;68.00;;;27.23;;
72924;SDS011;61070;50.794;7.054;2023-02-15T02:43:01;62.22;;;27.15;;
72924;SDS011;61070;50.794;7.054;2023-02-15T02:48:19;67.00;;;27.90;;
72924;SDS011;61070;50.794;7.054;2023-02-15T02:50:49;61.05;;;26.80;;
72924;SDS011;61070;50.794;7.054;2023-02-15T02:53:14;72.13;;;27.65;;
72924;SDS011;61070;50.794;7.054;2023-02-15T02:55:59;66.10;;;27.77;;
72924;SDS011;61070;50.794;7.054;2023-02-15T02:58:32;70.35;;;28.73;;
72924;SDS011;61070;50.794;7.054;2023-02-15T03:01:03;69.80;;;29.17;;
72924;SDS011;61070;50.794;7.054;2023-02-15T03:03:39;71.38;;;28.88;;
72924;SDS011;61070;50.794;7.054;2023-02-15T03:06:12;61.08;;;27.10;;
72924;SDS011;61070;50.794;7.054;2023-02-15T03:08:44;68.70;;;27.25;;
72924;SDS011;61070;50.794;7.054;2023-02-15T03:11:12;64.78;;;28.40;;
72924;SDS011;61070;50.794;7.054;2023-02-15T03:13:38;66.38;;;26.45;;
72924;SDS011;61070;50.794;7.054;2023-02-15T03:16:05;64.65;;;28.30;;
72924;SDS011;61070;50.794;7.054;2023-02-15T03:19:05;70.30;;;27.45;;
72924;SDS011;61070;50.794;7.054;2023-02-15T03:21:36;63.78;;;26.42;;
72924;SDS011;61070;50.794;7.054;2023-02-15T03:24:08;67.85;;;27.05;;
72924;SDS011;61070;50.794;7.054;2023-02-15T03:26:37;66.88;;;27.10;;
72924;SDS011;61070;50.794;7.054;2023-02-15T03:29:05;65.25;;;26.52;;
72924;SDS011;61070;50.794;7.054;2023-02-15T03:31:33;63.58;;;26.15;;
72924;SDS011;61070;50.794;7.054;2023-02-15T03:34:03;59.50;;;25.98;;
72924;SDS011;61070;50.794;7.054;2023-02-15T03:36:40;68.88;;;25.25;;
72924;SDS011;61070;50.794;7.054;2023-02-15T03:39:30;69.95;;;26.63;;
72924;SDS011;61070;50.794;7.054;2023-02-15T03:42:13;63.40;;;24.90;;
72924;SDS011;61070;50.794;7.054;2023-02-15T03:47:36;65.80;;;26.40;;
72924;SDS011;61070;50.794;7.054;2023-02-15T03:50:16;62.58;;;26.70;;
72924;SDS011;61070;50.794;7.054;2023-02-15T03:53:05;64.28;;;26.23;;
72924;SDS011;61070;50.794;7.054;2023-02-15T03:55:33;65.45;;;26.83;;
72924;SDS011;61070;50.794;7.054;2023-02-15T03:58:00;61.90;;;25.67;;
72924;SDS011;61070;50.794;7.054;2023-02-15T04:00:54;67.15;;;28.10;;
72924;SDS011;61070;50.794;7.054;2023-02-15T04:03:43;59.90;;;24.65;;
72924;SDS011;61070;50.794;7.054;2023-02-15T04:06:15;64.68;;;27.95;;
72924;SDS011;61070;50.794;7.054;2023-02-15T04:08:40;59.92;;;25.80;;
72924;SDS011;61070;50.794;7.054;2023-02-15T04:11:24;57.45;;;25.40;;
72924;SDS011;61070;50.794;7.054;2023-02-15T04:13:49;60.72;;;24.85;;
72924;SDS011;61070;50.794;7.054;2023-02-15T04:16:21;61.58;;;24.42;;
72924;SDS011;61070;50.794;7.054;2023-02-15T04:18:47;58.60;;;25.40;;
72924;SDS011;61070;50.794;7.054;2023-02-15T04:21:31;56.78;;;24.02;;
72924;SDS011;61070;50.794;7.054;2023-02-15T04:24:15;56.88;;;23.65;;
72924;SDS011;61070;50.794;7.054;2023-02-15T04:27:00;55.00;;;23.10;;
72924;SDS011;61070;50.794;7.054;2023-02-15T04:29:26;55.75;;;24.60;;
72924;SDS011;61070;50.794;7.054;2023-02-15T04:31:52;59.30;;;23.98;;
72924;SDS011;61070;50.794;7.054;2023-02-15T04:34:19;58.33;;;24.08;;
72924;SDS011;61070;50.794;7.054;2023-02-15T04:36:45;64.60;;;25.23;;
72924;SDS011;61070;50.794;7.054;2023-02-15T04:39:14;56.33;;;23.13;;
72924;SDS011;61070;50.794;7.054;2023-02-15T04:41:41;50.13;;;22.13;;
72924;SDS011;61070;50.794;7.054;2023-02-15T04:44:06;53.33;;;22.30;;
72924;SDS011;61070;50.794;7.054;2023-02-15T04:46:31;51.95;;;23.15;;
72924;SDS011;61070;50.794;7.054;2023-02-15T04:48:57;54.05;;;23.00;;
72924;SDS011;61070;50.794;7.054;2023-02-15T04:51:23;60.42;;;23.80;;
72924;SDS011;61070;50.794;7.054;2023-02-15T04:53:49;56.78;;;25.30;;
72924;SDS011;61070;50.794;7.054;2023-02-15T04:56:14;57.33;;;25.25;;
72924;SDS011;61070;50.794;7.054;2023-02-15T04:58:40;54.72;;;22.25;;
72924;SDS011;61070;50.794;7.054;2023-02-15T05:01:06;53.97;;;23.95;;
72924;SDS011;61070;50.794;7.054;2023-02-15T05:03:35;56.05;;;23.35;;
72924;SDS011;61070;50.794;7.054;2023-02-15T05:06:01;55.25;;;23.30;;
72924;SDS011;61070;50.794;7.054;2023-02-15T05:08:27;52.20;;;23.90;;
72924;SDS011;61070;50.794;7.054;2023-02-15T05:10:52;54.55;;;22.20;;
72924;SDS011;61070;50.794;7.054;2023-02-15T05:13:17;56.67;;;24.23;;
72924;SDS011;61070;50.794;7.054;2023-02-15T05:15:46;51.03;;;21.73;;
72924;SDS011;61070;50.794;7.054;2023-02-15T05:18:16;54.45;;;23.15;;
72924;SDS011;61070;50.794;7.054;2023-02-15T05:20:42;60.88;;;23.08;;
72924;SDS011;61070;50.794;7.054;2023-02-15T05:23:08;53.35;;;23.08;;
72924;SDS011;61070;50.794;7.054;2023-02-15T05:25:33;52.65;;;22.48;;
72924;SDS011;61070;50.794;7.054;2023-02-15T05:28:18;52.30;;;22.08;;
72924;SDS011;61070;50.794;7.054;2023-02-15T05:30:49;50.40;;;22.65;;
72924;SDS011;61070;50.794;7.054;2023-02-15T05:33:23;51.20;;;20.63;;
72924;SDS011;61070;50.794;7.054;2023-02-15T05:35:48;54.65;;;23.10;;
72924;SDS011;61070;50.794;7.054;2023-02-15T05:38:13;55.70;;;22.95;;
72924;SDS011;61070;50.794;7.054;2023-02-15T05:40:39;52.70;;;22.50;;
72924;SDS011;61070;50.794;7.054;2023-02-15T05:43:04;50.10;;;20.85;;
72924;SDS011;61070;50.794;7.054;2023-02-15T05:45:29;59.30;;;23.33;;
72924;SDS011;61070;50.794;7.054;2023-02-15T05:47:55;52.25;;;21.88;;
72924;SDS011;61070;50.794;7.054;2023-02-15T05:50:22;54.92;;;22.48;;
72924;SDS011;61070;50.794;7.054;2023-02-15T05:52:48;49.53;;;20.30;;
72924;SDS011;61070;50.794;7.054;2023-02-15T05:55:13;52.92;;;21.13;;
72924;SDS011;61070;50.794;7.054;2023-02-15T05:57:38;52.90;;;22.05;;
72924;SDS011;61070;50.794;7.054;2023-02-15T06:00:04;50.17;;;20.58;;
72924;SDS011;61070;50.794;7.054;2023-02-15T06:02:36;50.75;;;22.33;;
72924;SDS011;61070;50.794;7.054;2023-02-15T06:05:03;47.50;;;22.48;;
72924;SDS011;61070;50.794;7.054;2023-02-15T06:07:29;50.72;;;20.63;;
72924;SDS011;61070;50.794;7.054;2023-02-15T06:09:54;46.65;;;19.67;;
72924;SDS011;61070;50.794;7.054;2023-02-15T06:12:20;46.85;;;19.55;;
72924;SDS011;61070;50.794;7.054;2023-02-15T06:14:45;48.80;;;20.73;;
72924;SDS011;61070;50.794;7.054;2023-02-15T06:17:10;46.10;;;21.17;;
72924;SDS011;61070;50.794;7.054;2023-02-15T06:19:38;45.20;;;20.45;;
72924;SDS011;61070;50.794;7.054;2023-02-15T06:22:03;52.70;;;21.42;;
72924;SDS011;61070;50.794;7.054;2023-02-15T06:24:28;46.15;;;20.70;;
72924;SDS011;61070;50.794;7.054;2023-02-15T06:26:53;46.15;;;20.55;;
72924;SDS011;61070;50.794;7.054;2023-02-15T06:29:19;42.70;;;19.73;;
72924;SDS011;61070;50.794;7.054;2023-02-15T06:31:44;44.22;;;19.52;;
72924;SDS011;61070;50.794;7.054;2023-02-15T06:34:09;44.22;;;19.40;;
72924;SDS011;61070;50.794;7.054;2023-02-15T06:36:35;43.05;;;18.98;;
72924;SDS011;61070;50.794;7.054;2023-02-15T06:39:00;46.70;;;20.05;;
72924;SDS011;61070;50.794;7.054;2023-02-15T06:41:27;46.10;;;20.13;;
72924;SDS011;61070;50.794;7.054;2023-02-15T06:43:52;47.45;;;19.02;;
72924;SDS011;61070;50.794;7.054;2023-02-15T06:46:17;52.20;;;20.67;;
72924;SDS011;61070;50.794;7.054;2023-02-15T06:48:43;47.72;;;19.05;;
72924;SDS011;61070;50.794;7.054;2023-02-15T06:51:08;44.88;;;19.10;;
72924;SDS011;61070;50.794;7.054;2023-02-15T06:53:33;43.72;;;20.45;;
72924;SDS011;61070;50.794;7.054;2023-02-15T06:56:02;46.42;;;20.52;;
72924;SDS011;61070;50.794;7.054;2023-02-15T06:58:31;45.78;;;19.63;;
72924;SDS011;61070;50.794;7.054;2023-02-15T07:01:03;44.83;;;18.50;;
72924;SDS011;61070;50.794;7.054;2023-02-15T07:03:29;50.70;;;20.08;;
72924;SDS011;61070;50.794;7.054;2023-02-15T07:05:58;45.65;;;19.00;;
72924;SDS011;61070;50.794;7.054;2023-02-15T07:08:25;45.60;;;19.40;;
72924;SDS011;61070;50.794;7.054;2023-02-15T07:10:51;44.33;;;19.13;;
72924;SDS011;61070;50.794;7.054;2023-02-15T07:13:18;43.53;;;18.70;;
72924;SDS011;61070;50.794;7.054;2023-02-15T07:15:44;47.47;;;18.83;;
72924;SDS011;61070;50.794;7.054;2023-02-15T07:18:12;40.03;;;19.05;;
72924;SDS011;61070;50.794;7.054;2023-02-15T07:20:38;39.05;;;18.17;;
72924;SDS011;61070;50.794;7.054;2023-02-15T07:23:03;53.30;;;20.23;;
72924;SDS011;61070;50.794;7.054;2023-02-15T07:25:30;42.47;;;19.08;;
72924;SDS011;61070;50.794;7.054;2023-02-15T07:27:59;38.97;;;18.50;;
72924;SDS011;61070;50.794;7.054;2023-02-15T07:30:26;37.90;;;16.52;;
72924;SDS011;61070;50.794;7.054;2023-02-15T07:32:55;46.75;;;17.45;;
72924;SDS011;61070;50.794;7.054;2023-02-15T07:35:46;44.55;;;18.17;;
72924;SDS011;61070;50.794;7.054;2023-02-15T07:38:12;44.90;;;18.83;;
72924;SDS011;61070;50.794;7.054;2023-02-15T07:40:37;42.05;;;17.45;;
72924;SDS011;61070;50.794;7.054;2023-02-15T07:43:03;38.30;;;16.75;;
72924;SDS011;61070;50.794;7.054;2023-02-15T07:45:28;43.88;;;19.75;;
72924;SDS011;61070;50.794;7.054;2023-02-15T07:47:53;40.35;;;17.77;;
72924;SDS011;61070;50.794;7.054;2023-02-15T07:50:18;41.20;;;17.75;;
72924;SDS011;61070;50.794;7.054;2023-02-15T07:52:44;42.38;;;19.15;;
72924;SDS011;61070;50.794;7.054;2023-02-15T07:55:09;39.28;;;17.00;;
72924;SDS011;61070;50.794;7.054;2023-02-15T07:57:37;40.22;;;16.65;;
72924;SDS011;61070;50.794;7.054;2023-02-15T08:00:07;41.85;;;18.25;;
72924;SDS011;61070;50.794;7.054;2023-02-15T08:02:32;37.25;;;17.92;;
72924;SDS011;61070;50.794;7.054;2023-02-15T08:04:58;39.42;;;16.33;;
72924;SDS011;61070;50.794;7.054;2023-02-15T08:07:24;38.00;;;16.58;;
72924;SDS011;61070;50.794;7.054;2023-02-15T08:09:49;35.65;;;16.15;;
72924;SDS011;61070;50.794;7.054;2023-02-15T08:12:14;43.53;;;17.50;;
72924;SDS011;61070;50.794;7.054;2023-02-15T08:14:40;36.20;;;17.02;;
72924;SDS011;61070;50.794;7.054;2023-02-15T08:17:05;40.35;;;17.08;;
72924;SDS011;61070;50.794;7.054;2023-02-15T08:19:31;37.30;;;16.70;;
72924;SDS011;61070;50.794;7.054;2023-02-15T08:22:01;40.33;;;17.13;;
72924;SDS011;61070;50.794;7.054;2023-02-15T08:24:29;33.38;;;15.35;;
72924;SDS011;61070;50.794;7.054;2023-02-15T08:26:56;32.78;;;14.60;;
72924;SDS011;61070;50.794;7.054;2023-02-15T08:29:24;36.88;;;15.40;;
72924;SDS011;61070;50.794;7.054;2023-02-15T08:32:02;36.40;;;16.88;;
72924;SDS011;61070;50.794;7.054;2023-02-15T08:34:30;30.83;;;14.27;;
72924;SDS011;61070;50.794;7.054;2023-02-15T08:36:58;33.35;;;14.85;;
72924;SDS011;61070;50.794;7.054;2023-02-15T08:39:23;35.50;;;15.90;;
72924;SDS011;61070;50.794;7.054;2023-02-15T08:41:49;35.95;;;15.80;;
72924;SDS011;61070;50.794;7.054;2023-02-15T08:44:15;38.25;;;16.77;;
72924;SDS011;61070;50.794;7.054;2023-02-15T08:46:43;36.38;;;16.25;;
72924;SDS011;61070;50.794;7.054;2023-02-15T08:49:10;37.20;;;16.05;;
72924;SDS011;61070;50.794;7.054;2023-02-15T08:51:38;37.05;;;15.18;;
72924;SDS011;61070;50.794;7.054;2023-02-15T08:54:06;33.05;;;16.58;;
72924;SDS011;61070;50.794;7.054;2023-02-15T08:56:37;30.17;;;14.52;;
72924;SDS011;61070;50.794;7.054;2023-02-15T08:59:05;35.20;;;15.25;;
72924;SDS011;61070;50.794;7.054;2023-02-15T09:01:31;32.20;;;14.98;;
72924;SDS011;61070;50.794;7.054;2023-02-15T09:03:58;36.88;;;16.05;;
72924;SDS011;61070;50.794;7.054;2023-02-15T09:06:25;34.30;;;14.80;;
72924;SDS011;61070;50.794;7.054;2023-02-15T09:08:51;31.95;;;14.98;;
72924;SDS011;61070;50.794;7.054;2023-02-15T09:11:18;30.75;;;14.02;;
72924;SDS011;61070;50.794;7.054;2023-02-15T09:13:59;29.40;;;15.05;;
72924;SDS011;61070;50.794;7.054;2023-02-15T09:16:27;28.25;;;14.65;;
72924;SDS011;61070;50.794;7.054;2023-02-15T09:18:54;34.05;;;14.10;;
72924;SDS011;61070;50.794;7.054;2023-02-15T09:21:22;31.60;;;15.10;;
72924;SDS011;61070;50.794;7.054;2023-02-15T09:23:50;27.77;;;14.27;;
72924;SDS011;61070;50.794;7.054;2023-02-15T09:26:17;30.10;;;14.38;;
72924;SDS011;61070;50.794;7.054;2023-02-15T09:28:45;28.73;;;14.80;;
72924;SDS011;61070;50.794;7.054;2023-02-15T09:31:13;31.73;;;15.25;;
72924;SDS011;61070;50.794;7.054;2023-02-15T09:33:41;35.15;;;16.25;;
72924;SDS011;61070;50.794;7.054;2023-02-15T09:36:18;27.17;;;14.07;;
72924;SDS011;61070;50.794;7.054;2023-02-15T09:38:47;34.00;;;15.60;;
72924;SDS011;61070;50.794;7.054;2023-02-15T09:41:36;29.55;;;13.60;;
72924;SDS011;61070;50.794;7.054;2023-02-15T09:44:17;32.97;;;14.60;;
72924;SDS011;61070;50.794;7.054;2023-02-15T09:50:10;27.52;;;14.77;;
72924;SDS011;61070;50.794;7.054;2023-02-15T09:55:53;34.05;;;14.48;;
72924;SDS011;61070;50.794;7.054;2023-02-15T09:58:39;28.50;;;14.05;;
72924;SDS011;61070;50.794;7.054;2023-02-15T10:06:32;30.35;;;15.45;;
72924;SDS011;61070;50.794;7.054;2023-02-15T10:20:03;26.80;;;14.85;;
72924;SDS011;61070;50.794;7.054;2023-02-15T10:22:35;31.75;;;13.60;;
72924;SDS011;61070;50.794;7.054;2023-02-15T10:25:23;28.75;;;15.13;;
72924;SDS011;61070;50.794;7.054;2023-02-15T10:28:19;30.48;;;15.63;;
72924;SDS011;61070;50.794;7.054;2023-02-15T10:30:49;26.13;;;14.32;;
72924;SDS011;61070;50.794;7.054;2023-02-15T10:33:20;29.95;;;15.55;;
72924;SDS011;61070;50.794;7.054;2023-02-15T10:42:11;27.65;;;14.73;;
72924;SDS011;61070;50.794;7.054;2023-02-15T10:50:51;27.38;;;13.57;;
72924;SDS011;61070;50.794;7.054;2023-02-15T10:58:48;24.63;;;13.73;;
72924;SDS011;61070;50.794;7.054;2023-02-15T11:01:41;30.70;;;15.85;;
72924;SDS011;61070;50.794;7.054;2023-02-15T11:04:37;30.20;;;16.10;;
72924;SDS011;61070;50.794;7.054;2023-02-15T11:07:12;29.85;;;15.73;;
72924;SDS011;61070;50.794;7.054;2023-02-15T11:09:40;28.50;;;14.15;;
72924;SDS011;61070;50.794;7.054;2023-02-15T11:12:11;26.00;;;13.68;;
72924;SDS011;61070;50.794;7.054;2023-02-15T11:17:57;26.90;;;14.25;;
72924;SDS011;61070;50.794;7.054;2023-02-15T11:22:48;30.70;;;14.38;;
72924;SDS011;61070;50.794;7.054;2023-02-15T11:25:19;25.33;;;14.00;;
72924;SDS011;61070;50.794;7.054;2023-02-15T11:27:50;26.55;;;13.32;;
72924;SDS011;61070;50.794;7.054;2023-02-15T11:30:21;25.20;;;14.00;;
72924;SDS011;61070;50.794;7.054;2023-02-15T11:32:53;28.15;;;15.10;;
72924;SDS011;61070;50.794;7.054;2023-02-15T11:35:24;27.42;;;13.98;;
72924;SDS011;61070;50.794;7.054;2023-02-15T11:38:14;27.10;;;14.43;;
72924;SDS011;61070;50.794;7.054;2023-02-15T11:46:00;28.05;;;15.02;;
72924;SDS011;61070;50.794;7.054;2023-02-15T11:48:26;25.90;;;13.60;;
72924;SDS011;61070;50.794;7.054;2023-02-15T11:50:55;27.55;;;14.07;;
72924;SDS011;61070;50.794;7.054;2023-02-15T11:53:21;24.92;;;13.52;;
72924;SDS011;61070;50.794;7.054;2023-02-15T11:55:52;31.00;;;15.60;;
72924;SDS011;61070;50.794;7.054;2023-02-15T11:58:29;27.67;;;13.93;;
72924;SDS011;61070;50.794;7.054;2023-02-15T12:06:06;27.58;;;13.73;;
72924;SDS011;61070;50.794;7.054;2023-02-15T12:08:42;27.98;;;13.82;;
72924;SDS011;61070;50.794;7.054;2023-02-15T12:11:21;23.02;;;12.77;;
72924;SDS011;61070;50.794;7.054;2023-02-15T12:13:55;27.95;;;14.27;;
72924;SDS011;61070;50.794;7.054;2023-02-15T12:16:25;24.15;;;13.73;;
72924;SDS011;61070;50.794;7.054;2023-02-15T12:18:53;28.20;;;13.98;;
72924;SDS011;61070;50.794;7.054;2023-02-15T12:21:26;25.92;;;13.38;;
72924;SDS011;61070;50.794;7.054;2023-02-15T12:23:55;28.45;;;14.80;;
72924;SDS011;61070;50.794;7.054;2023-02-15T12:26:23;25.80;;;13.63;;
72924;SDS011;61070;50.794;7.054;2023-02-15T12:28:53;24.33;;;14.02;;
72924;SDS011;61070;50.794;7.054;2023-02-15T12:31:25;25.02;;;13.93;;
72924;SDS011;61070;50.794;7.054;2023-02-15T12:34:12;23.75;;;12.93;;
72924;SDS011;61070;50.794;7.054;2023-02-15T12:36:47;24.73;;;12.70;;
72924;SDS011;61070;50.794;7.054;2023-02-15T12:39:20;23.48;;;13.32;;
72924;SDS011;61070;50.794;7.054;2023-02-15T12:44:19;23.90;;;12.90;;
72924;SDS011;61070;50.794;7.054;2023-02-15T12:46:58;25.52;;;12.68;;
72924;SDS011;61070;50.794;7.054;2023-02-15T12:49:34;21.92;;;13.30;;
72924;SDS011;61070;50.794;7.054;2023-02-15T12:52:01;26.77;;;13.05;;
72924;SDS011;61070;50.794;7.054;2023-02-15T12:54:50;22.27;;;12.63;;
72924;SDS011;61070;50.794;7.054;2023-02-15T13:07:52;23.88;;;12.77;;
72924;SDS011;61070;50.794;7.054;2023-02-15T13:10:25;22.02;;;12.27;;
72924;SDS011;61070;50.794;7.054;2023-02-15T13:12:53;22.48;;;12.25;;
72924;SDS011;61070;50.794;7.054;2023-02-15T13:15:25;26.85;;;11.98;;
72924;SDS011;61070;50.794;7.054;2023-02-15T13:17:55;20.92;;;12.70;;
72924;SDS011;61070;50.794;7.054;2023-02-15T13:20:21;24.05;;;12.38;;
72924;SDS011;61070;50.794;7.054;2023-02-15T13:22:52;24.35;;;12.85;;
72924;SDS011;61070;50.794;7.054;2023-02-15T13:25:23;23.55;;;11.95;;
72924;SDS011;61070;50.794;7.054;2023-02-15T13:27:52;25.13;;;11.85;;
72924;SDS011;61070;50.794;7.054;2023-02-15T13:30:28;21.20;;;12.67;;
72924;SDS011;61070;50.794;7.054;2023-02-15T13:33:00;28.20;;;13.27;;
72924;SDS011;61070;50.794;7.054;2023-02-15T13:35:31;20.52;;;11.85;;
72924;SDS011;61070;50.794;7.054;2023-02-15T13:38:09;21.02;;;12.85;;
72924;SDS011;61070;50.794;7.054;2023-02-15T13:40:48;21.05;;;11.85;;
72924;SDS011;61070;50.794;7.054;2023-02-15T13:46:10;24.70;;;11.57;;
72924;SDS011;61070;50.794;7.054;2023-02-15T13:48:51;27.95;;;12.50;;
72924;SDS011;61070;50.794;7.054;2023-02-15T13:59:46;23.90;;;12.02;;
72924;SDS011;61070;50.794;7.054;2023-02-15T14:19:59;19.73;;;12.05;;
72924;SDS011;61070;50.794;7.054;2023-02-15T14:22:41;21.20;;;11.50;;
72924;SDS011;61070;50.794;7.054;2023-02-15T14:27:45;18.08;;;11.63;;
72924;SDS011;61070;50.794;7.054;2023-02-15T14:30:29;27.10;;;12.82;;
72924;SDS011;61070;50.794;7.054;2023-02-15T14:33:02;23.92;;;12.32;;
72924;SDS011;61070;50.794;7.054;2023-02-15T14:35:32;24.08;;;11.43;;
72924;SDS011;61070;50.794;7.054;2023-02-15T14:40:59;21.90;;;12.10;;
72924;SDS011;61070;50.794;7.054;2023-02-15T14:43:44;20.25;;;11.55;;
72924;SDS011;61070;50.794;7.054;2023-02-15T14:48:58;24.77;;;12.70;;
72924;SDS011;61070;50.794;7.054;2023-02-15T14:56:43;25.48;;;11.43;;
72924;SDS011;61070;50.794;7.054;2023-02-15T15:01:55;19.95;;;11.43;;
72924;SDS011;61070;50.794;7.054;2023-02-15T15:04:27;20.00;;;10.52;;
72924;SDS011;61070;50.794;7.054;2023-02-15T15:06:59;23.17;;;12.25;;
72924;SDS011;61070;50.794;7.054;2023-02-15T15:09:29;23.73;;;12.63;;
72924;SDS011;61070;50.794;7.054;2023-02-15T15:12:12;22.67;;;12.70;;
72924;SDS011;61070;50.794;7.054;2023-02-15T15:14:42;20.60;;;11.35;;
72924;SDS011;61070;50.794;7.054;2023-02-15T15:17:12;26.98;;;12.07;;
72924;SDS011;61070;50.794;7.054;2023-02-15T15:20:10;24.88;;;11.65;;
72924;SDS011;61070;50.794;7.054;2023-02-15T15:22:38;20.77;;;12.07;;
72924;SDS011;61070;50.794;7.054;2023-02-15T15:25:39;18.90;;;11.35;;
72924;SDS011;61070;50.794;7.054;2023-02-15T15:34:00;24.48;;;12.07;;
72924;SDS011;61070;50.794;7.054;2023-02-15T15:42:48;22.55;;;12.88;;
72924;SDS011;61070;50.794;7.054;2023-02-15T15:45:32;28.35;;;13.20;;
72924;SDS011;61070;50.794;7.054;2023-02-15T15:48:31;26.90;;;13.52;;
72924;SDS011;61070;50.794;7.054;2023-02-15T15:51:12;30.52;;;13.57;;
72924;SDS011;61070;50.794;7.054;2023-02-15T15:53:43;29.73;;;14.70;;
72924;SDS011;61070;50.794;7.054;2023-02-15T15:56:15;26.35;;;13.20;;
72924;SDS011;61070;50.794;7.054;2023-02-15T15:58:46;26.23;;;12.40;;
72924;SDS011;61070;50.794;7.054;2023-02-15T16:01:16;24.77;;;12.88;;
72924;SDS011;61070;50.794;7.054;2023-02-15T16:03:49;22.17;;;12.45;;
72924;SDS011;61070;50.794;7.054;2023-02-15T16:08:53;26.17;;;12.70;;
72924;SDS011;61070;50.794;7.054;2023-02-15T16:11:20;27.23;;;12.00;;
72924;SDS011;61070;50.794;7.054;2023-02-15T16:13:48;28.67;;;12.15;;
72924;SDS011;61070;50.794;7.054;2023-02-15T16:16:19;22.60;;;12.60;;
72924;SDS011;61070;50.794;7.054;2023-02-15T16:18:47;27.08;;;12.70;;
72924;SDS011;61070;50.794;7.054;2023-02-15T16:21:20;21.58;;;12.30;;
72924;SDS011;61070;50.794;7.054;2023-02-15T16:29:16;22.52;;;12.90;;
72924;SDS011;61070;50.794;7.054;2023-02-15T16:31:42;25.17;;;13.30;;
72924;SDS011;61070;50.794;7.054;2023-02-15T16:34:16;28.60;;;15.00;;
72924;SDS011;61070;50.794;7.054;2023-02-15T16:36:42;30.65;;;14.93;;
72924;SDS011;61070;50.794;7.054;2023-02-15T16:39:09;29.83;;;14.57;;
72924;SDS011;61070;50.794;7.054;2023-02-15T16:41:42;29.02;;;16.10;;
72924;SDS011;61070;50.794;7.054;2023-02-15T16:44:18;28.25;;;15.05;;
72924;SDS011;61070;50.794;7.054;2023-02-15T16:46:48;32.10;;;15.90;;
72924;SDS011;61070;50.794;7.054;2023-02-15T16:49:19;29.13;;;15.77;;
72924;SDS011;61070;50.794;7.054;2023-02-15T16:52:03;28.40;;;15.55;;
72924;SDS011;61070;50.794;7.054;2023-02-15T16:54:31;27.40;;;14.50;;
72924;SDS011;61070;50.794;7.054;2023-02-15T16:56:58;34.15;;;15.75;;
72924;SDS011;61070;50.794;7.054;2023-02-15T16:59:31;32.92;;;17.20;;
72924;SDS011;61070;50.794;7.054;2023-02-15T17:04:40;27.88;;;14.68;;
72924;SDS011;61070;50.794;7.054;2023-02-15T17:07:15;34.13;;;15.75;;
72924;SDS011;61070;50.794;7.054;2023-02-15T17:09:53;30.98;;;15.75;;
72924;SDS011;61070;50.794;7.054;2023-02-15T17:15:27;31.83;;;15.10;;
72924;SDS011;61070;50.794;7.054;2023-02-15T17:18:01;27.35;;;15.55;;
72924;SDS011;61070;50.794;7.054;2023-02-15T17:20:30;30.67;;;16.00;;
72924;SDS011;61070;50.794;7.054;2023-02-15T17:22:56;31.15;;;16.13;;